A- A+ FrançaisEnglishEspañol中国

le plus proche LFBT Tarbes-Lourdes-PyrénéesLFLS Grenoble-St-GeoirsLFPB Paris-Le-Bourget LFPL Logne-Emerainville

manche à air

La météo aéronautique pour les pilotes, la préparation du vol avec les METAR (METeorological Aerodrome Report, message d'observation des conditions météorologiques pour l'aviation) et Les TAF (Terminal Aerodrome Forecast : message de prévision à court terme des conditions météorologiques pour l'aviation). Et les autres ressources comme les VAC (Visual Approch Chart) et les NOTAM (Notice To Airman) pour préprer les vols.

Aéroport Fort Mc Pherson (Canada) / OACI CZFM/ IATA ZFM

L'altitude de l'aéroport Fort Mc Pherson est de 35 m=115 ft. Il est situé à proximité de Fort Mcpherson (Canada). La météo générale à 5 jours est disponible pour Fort McPherson situé à 3.6 km.

METAR de l'aéroport Fort Mc Pherson - CZFM

CZFM 101908Z 34005KT 290V360 6SM -DZ OVC014 08/06 A3009 RMK SC8 SLP191

Décodage du METAR de l'aéroport Fort Mc Pherson (CA)

METAR émis par CZFM le samedi 10 août 2019 à 19:08 heure TU. Attention ce METAR est obsolète car il a été émis il y a 7 heure et 38 minutes.

La visibilité est de 9.7 km=6 sm.

La température est de 8°C=46 °F et le point rosée est de 6°C=43 °F . Ce qui correspond à 87% d'humidité relative.

Le QNH est de 1019 hPa=30.09 inHg

Vent de 5 kt=9 km/h, orienté à 340°.

Nuages : Couverture nuageuse soudée à 1400 ft=430 mètres.

-DZ

RMK SC8 SLP191

TAF de l'aéroport Fort Mc Pherson - CZFM

CZFM 101838Z 1019/1023 36007KT 5SM -RA BR OVC007 TEMPO 1019/1023 P6SM -DZ OVC010 RMK NXT FCST WILL BE ISSUED AT 111545Z

CZFM 101838Z 1019/1023 36007KT 5SM faible RA brume couverture nuageuse soudée à 007 temporairement 1019/1023 P6SM faible DZ couverture nuageuse soudée à 010 remarques NXT trombe ST WILL BE ISSUED AT 111545Z

Aéroport à proximité de Fort Mc Pherson

Météo générale à 5 jours à Fort McPherson (3.6 km)CYKD Aéroport Aklavik (91 km)CYEV Aéroport Inuvik (115 km)CYOC Aéroport Old Crow (213 km)CYUB Aéroport Tuktoyaktuk (237 km)CYGH Aéroport Fort Good Hope (301 km)CYDA Aéroport Dawson (422 km)

Vue aérienne de l'aéroport Fort Mc Pherson

NOTAM de l'aéroport Fort Mc Pherson

Les NOTAM sont fournis sans aucune garantie de leur actualité. Le pilote est le seul responsable de la vérification de sa validité avant de l'utiliser opérationnellement pour préparer un vol ou l'utiliser lors de sa navigation.

Pas de NOTAM

Sources des données